Accueil
METAR-TAF:

METAR-TAF

Aéroports :

University-Oxford_Airport

Oxford, Mississippi, États-Unis

latitude: 34-23-04N, longitude: 089-32-08W, altitude: 138 m

Observation

Le bulletin a été fait il y a 23 minutes, à 15:15 UTC
Vent 12 kt de nord-ouest
Température 3°C
Humidité 35%
Pression 1031 hPa
Visibilité: 16.1 km
Ciel clair

METAR: KUOX 191515Z AUTO 32012KT 10SM CLR 03/M11 A3045 RMK AO2

Heure: 09:38 (15:38 UTC)


TAF: absent

Observations et prévisions météorologiques de plus de 4000 aéroports (messages METAR et TAF).

Les stations disponibles sont représentées par des disques jaunes et rouges sur la carte.

Passer la souris dessus pour voir le nom de la station.

Cliquer dessus pour voir les observations et prévisions météorologiques.

Pour changer de carte: cliquez sur les boutons verts avec une croix noire pour zoomer, sur le bouton vert avec un tiret pour effectuer un zoom arrière, ou sur les flèches vertes pour les cartes adjacentes.


METAR-TAF: